WIMM/MES METAR and TAF weather

Enter ICAO airport designator
Station Type Date Time Source
WIMM METAR 2021/01/17 19:30 UTC NOAA

WIMM 171930Z 23003KT 3000 BR SCT018 25/25 Q1009 NOSIG


Station Type Date Time Source
WIMM Decoded METAR 2021/01/17 19:30 UTC NOAA

Medan / Polonia, Indonesia (WIMM) 03-34N 098-41E 25M
Jan 17, 2021 - 02:30 PM EST / 2021.01.17 1930 UTC
Wind: from the SW (230 degrees) at 3 MPH (3 KT):0
Visibility: 1 mile(s):0
Sky conditions: partly cloudy
Weather: mist
Temperature: 77 F (25 C)
Dew Point: 77 F (25 C)
Relative Humidity: 100%
Pressure (altimeter): 29.80 in. Hg (1009 hPa)
ob: WIMM 171930Z 23003KT 3000 BR SCT018 25/25 Q1009 NOSIG
cycle: 19

Station Type Date Time Source
WIMM TAF 2021/01/17 18:12 UTC NOAA

TAF WIMM 171700Z 1718/1818 23005KT 3000 BR FEW016CB SCT017
BECMG 1802/1804 36010KT 9000
TEMPO 1808/1812 4500 -TSRA
BECMG 1812/1814 23005KT 4000 HZ

Example: see airport list